sensor_id;sensor_type;location;lat;lon;timestamp;P1;P2;P0
80639;PMS5003;69992;60.170;24.692;2023-09-19T00:02:04;1;1;
80639;PMS5003;69992;60.170;24.692;2023-09-19T00:04:30;0;0;
80639;PMS5003;69992;60.170;24.692;2023-09-19T00:06:55;1;1;
80639;PMS5003;69992;60.170;24.692;2023-09-19T00:09:21;1;1;
80639;PMS5003;69992;60.170;24.692;2023-09-19T00:11:47;0;0;
80639;PMS5003;69992;60.170;24.692;2023-09-19T00:14:12;3;2;
80639;PMS5003;69992;60.170;24.692;2023-09-19T00:16:38;1;1;
80639;PMS5003;69992;60.170;24.692;2023-09-19T00:19:03;1;1;
80639;PMS5003;69992;60.170;24.692;2023-09-19T00:21:31;2;2;
80639;PMS5003;69992;60.170;24.692;2023-09-19T00:23:54;2;2;
80639;PMS5003;69992;60.170;24.692;2023-09-19T00:26:20;2;2;
80639;PMS5003;69992;60.170;24.692;2023-09-19T00:28:46;2;1;
80639;PMS5003;69992;60.170;24.692;2023-09-19T00:31:11;2;2;
80639;PMS5003;69992;60.170;24.692;2023-09-19T00:33:37;2;2;
80639;PMS5003;69992;60.170;24.692;2023-09-19T00:36:03;1;1;
80639;PMS5003;69992;60.170;24.692;2023-09-19T00:38:28;2;2;
80639;PMS5003;69992;60.170;24.692;2023-09-19T00:40:54;2;2;
80639;PMS5003;69992;60.170;24.692;2023-09-19T00:43:19;2;2;
80639;PMS5003;69992;60.170;24.692;2023-09-19T00:45:46;2;2;
80639;PMS5003;69992;60.170;24.692;2023-09-19T00:48:10;1;1;
80639;PMS5003;69992;60.170;24.692;2023-09-19T00:50:36;2;2;
80639;PMS5003;69992;60.170;24.692;2023-09-19T00:53:02;2;2;
80639;PMS5003;69992;60.170;24.692;2023-09-19T00:55:27;2;2;
80639;PMS5003;69992;60.170;24.692;2023-09-19T00:57:53;1;1;
80639;PMS5003;69992;60.170;24.692;2023-09-19T01:00:19;1;1;
80639;PMS5003;69992;60.170;24.692;2023-09-19T01:02:44;3;2;
80639;PMS5003;69992;60.170;24.692;2023-09-19T01:05:10;1;1;
80639;PMS5003;69992;60.170;24.692;2023-09-19T01:07:35;2;2;
80639;PMS5003;69992;60.170;24.692;2023-09-19T01:10:02;0;0;
80639;PMS5003;69992;60.170;24.692;2023-09-19T01:12:28;2;2;
80639;PMS5003;69992;60.170;24.692;2023-09-19T01:14:54;1;0;
80639;PMS5003;69992;60.170;24.692;2023-09-19T01:17:20;3;2;
80639;PMS5003;69992;60.170;24.692;2023-09-19T01:22:13;2;2;
80639;PMS5003;69992;60.170;24.692;2023-09-19T01:27:06;1;1;
80639;PMS5003;69992;60.170;24.692;2023-09-19T01:29:29;3;2;
80639;PMS5003;69992;60.170;24.692;2023-09-19T01:31:51;2;2;
80639;PMS5003;69992;60.170;24.692;2023-09-19T01:34:17;1;1;
80639;PMS5003;69992;60.170;24.692;2023-09-19T01:36:43;1;1;
80639;PMS5003;69992;60.170;24.692;2023-09-19T01:39:09;0;0;
80639;PMS5003;69992;60.170;24.692;2023-09-19T01:41:38;2;1;
80639;PMS5003;69992;60.170;24.692;2023-09-19T01:43:59;2;2;
80639;PMS5003;69992;60.170;24.692;2023-09-19T01:46:25;2;2;
80639;PMS5003;69992;60.170;24.692;2023-09-19T01:48:54;1;1;
80639;PMS5003;69992;60.170;24.692;2023-09-19T01:51:18;2;2;
80639;PMS5003;69992;60.170;24.692;2023-09-19T01:53:43;3;3;
80639;PMS5003;69992;60.170;24.692;2023-09-19T01:56:08;1;1;
80639;PMS5003;69992;60.170;24.692;2023-09-19T01:58:34;2;2;
80639;PMS5003;69992;60.170;24.692;2023-09-19T02:00:59;1;1;
80639;PMS5003;69992;60.170;24.692;2023-09-19T02:03:24;3;3;
80639;PMS5003;69992;60.170;24.692;2023-09-19T02:05:50;3;3;
80639;PMS5003;69992;60.170;24.692;2023-09-19T02:08:16;3;3;
80639;PMS5003;69992;60.170;24.692;2023-09-19T02:10:41;2;2;
80639;PMS5003;69992;60.170;24.692;2023-09-19T02:13:06;2;2;
80639;PMS5003;69992;60.170;24.692;2023-09-19T02:15:32;4;3;
80639;PMS5003;69992;60.170;24.692;2023-09-19T02:17:57;3;3;
80639;PMS5003;69992;60.170;24.692;2023-09-19T02:20:23;3;3;
80639;PMS5003;69992;60.170;24.692;2023-09-19T02:22:49;2;2;
80639;PMS5003;69992;60.170;24.692;2023-09-19T02:25:14;3;3;
80639;PMS5003;69992;60.170;24.692;2023-09-19T02:27:40;3;2;
80639;PMS5003;69992;60.170;24.692;2023-09-19T02:30:06;4;4;
80639;PMS5003;69992;60.170;24.692;2023-09-19T02:32:31;3;3;
80639;PMS5003;69992;60.170;24.692;2023-09-19T02:34:57;4;4;
80639;PMS5003;69992;60.170;24.692;2023-09-19T02:37:23;5;5;
80639;PMS5003;69992;60.170;24.692;2023-09-19T02:39:48;5;5;
80639;PMS5003;69992;60.170;24.692;2023-09-19T02:42:14;4;4;
80639;PMS5003;69992;60.170;24.692;2023-09-19T02:44:39;5;4;
80639;PMS5003;69992;60.170;24.692;2023-09-19T02:47:05;5;5;
80639;PMS5003;69992;60.170;24.692;2023-09-19T02:49:30;6;6;
80639;PMS5003;69992;60.170;24.692;2023-09-19T02:51:56;7;7;
80639;PMS5003;69992;60.170;24.692;2023-09-19T02:54:21;6;6;
80639;PMS5003;69992;60.170;24.692;2023-09-19T02:56:47;7;6;
80639;PMS5003;69992;60.170;24.692;2023-09-19T02:59:13;6;6;
80639;PMS5003;69992;60.170;24.692;2023-09-19T03:01:38;5;5;
80639;PMS5003;69992;60.170;24.692;2023-09-19T03:04:04;5;5;
80639;PMS5003;69992;60.170;24.692;2023-09-19T03:06:29;6;5;
80639;PMS5003;69992;60.170;24.692;2023-09-19T03:08:55;7;7;
80639;PMS5003;69992;60.170;24.692;2023-09-19T03:11:21;6;5;
80639;PMS5003;69992;60.170;24.692;2023-09-19T03:13:50;6;5;
80639;PMS5003;69992;60.170;24.692;2023-09-19T03:16:12;5;5;
80639;PMS5003;69992;60.170;24.692;2023-09-19T03:18:37;5;5;
80639;PMS5003;69992;60.170;24.692;2023-09-19T03:21:04;6;6;
80639;PMS5003;69992;60.170;24.692;2023-09-19T03:23:29;7;7;
80639;PMS5003;69992;60.170;24.692;2023-09-19T03:25:54;6;6;
80639;PMS5003;69992;60.170;24.692;2023-09-19T03:28:20;8;8;
80639;PMS5003;69992;60.170;24.692;2023-09-19T03:30:45;6;6;
80639;PMS5003;69992;60.170;24.692;2023-09-19T03:33:11;7;7;
80639;PMS5003;69992;60.170;24.692;2023-09-19T03:35:36;8;8;
80639;PMS5003;69992;60.170;24.692;2023-09-19T03:38:02;8;8;
80639;PMS5003;69992;60.170;24.692;2023-09-19T03:40:28;8;8;
80639;PMS5003;69992;60.170;24.692;2023-09-19T03:42:53;9;9;
80639;PMS5003;69992;60.170;24.692;2023-09-19T03:45:19;6;6;
80639;PMS5003;69992;60.170;24.692;2023-09-19T03:47:44;8;8;
80639;PMS5003;69992;60.170;24.692;2023-09-19T03:50:10;8;8;
80639;PMS5003;69992;60.170;24.692;2023-09-19T03:52:35;7;7;
80639;PMS5003;69992;60.170;24.692;2023-09-19T03:55:01;8;8;
80639;PMS5003;69992;60.170;24.692;2023-09-19T03:57:27;6;6;
80639;PMS5003;69992;60.170;24.692;2023-09-19T03:59:52;8;8;
80639;PMS5003;69992;60.170;24.692;2023-09-19T04:02:18;5;5;
80639;PMS5003;69992;60.170;24.692;2023-09-19T04:04:43;7;7;
80639;PMS5003;69992;60.170;24.692;2023-09-19T04:07:09;4;4;
80639;PMS5003;69992;60.170;24.692;2023-09-19T04:09:34;7;7;
80639;PMS5003;69992;60.170;24.692;2023-09-19T04:12:00;6;5;
80639;PMS5003;69992;60.170;24.692;2023-09-19T04:14:26;5;5;
80639;PMS5003;69992;60.170;24.692;2023-09-19T04:16:51;6;5;
80639;PMS5003;69992;60.170;24.692;2023-09-19T04:19:17;7;4;
80639;PMS5003;69992;60.170;24.692;2023-09-19T04:21:42;4;4;
80639;PMS5003;69992;60.170;24.692;2023-09-19T04:24:08;6;5;
80639;PMS5003;69992;60.170;24.692;2023-09-19T04:26:33;6;5;
80639;PMS5003;69992;60.170;24.692;2023-09-19T04:28:59;6;6;
80639;PMS5003;69992;60.170;24.692;2023-09-19T04:31:25;4;4;
80639;PMS5003;69992;60.170;24.692;2023-09-19T04:33:50;5;5;
80639;PMS5003;69992;60.170;24.692;2023-09-19T04:36:15;5;5;
80639;PMS5003;69992;60.170;24.692;2023-09-19T04:38:41;5;5;
80639;PMS5003;69992;60.170;24.692;2023-09-19T04:41:06;6;6;
80639;PMS5003;69992;60.170;24.692;2023-09-19T04:43:32;6;6;
80639;PMS5003;69992;60.170;24.692;2023-09-19T04:45:58;4;4;
80639;PMS5003;69992;60.170;24.692;2023-09-19T04:48:23;6;6;
80639;PMS5003;69992;60.170;24.692;2023-09-19T04:50:49;6;6;
80639;PMS5003;69992;60.170;24.692;2023-09-19T04:53:14;5;5;
80639;PMS5003;69992;60.170;24.692;2023-09-19T04:55:40;5;5;
80639;PMS5003;69992;60.170;24.692;2023-09-19T04:58:05;5;5;
80639;PMS5003;69992;60.170;24.692;2023-09-19T05:00:31;5;5;
80639;PMS5003;69992;60.170;24.692;2023-09-19T05:02:56;4;3;
80639;PMS5003;69992;60.170;24.692;2023-09-19T05:05:22;4;3;
80639;PMS5003;69992;60.170;24.692;2023-09-19T05:07:47;6;5;
80639;PMS5003;69992;60.170;24.692;2023-09-19T05:10:13;7;6;
80639;PMS5003;69992;60.170;24.692;2023-09-19T05:12:38;6;6;
80639;PMS5003;69992;60.170;24.692;2023-09-19T05:15:04;7;7;
80639;PMS5003;69992;60.170;24.692;2023-09-19T05:17:29;5;5;
80639;PMS5003;69992;60.170;24.692;2023-09-19T05:19:55;6;6;
80639;PMS5003;69992;60.170;24.692;2023-09-19T05:22:20;4;4;
80639;PMS5003;69992;60.170;24.692;2023-09-19T05:24:46;5;4;
80639;PMS5003;69992;60.170;24.692;2023-09-19T05:27:11;5;5;
80639;PMS5003;69992;60.170;24.692;2023-09-19T05:29:37;6;6;
80639;PMS5003;69992;60.170;24.692;2023-09-19T05:32:03;5;4;
80639;PMS5003;69992;60.170;24.692;2023-09-19T05:34:28;6;6;
80639;PMS5003;69992;60.170;24.692;2023-09-19T05:36:53;5;5;
80639;PMS5003;69992;60.170;24.692;2023-09-19T05:39:19;5;5;
80639;PMS5003;69992;60.170;24.692;2023-09-19T05:41:44;6;5;
80639;PMS5003;69992;60.170;24.692;2023-09-19T05:44:10;7;7;
80639;PMS5003;69992;60.170;24.692;2023-09-19T05:46:35;8;8;
80639;PMS5003;69992;60.170;24.692;2023-09-19T05:49:01;5;5;
80639;PMS5003;69992;60.170;24.692;2023-09-19T05:51:27;9;7;
80639;PMS5003;69992;60.170;24.692;2023-09-19T05:53:52;8;7;
80639;PMS5003;69992;60.170;24.692;2023-09-19T05:56:18;7;7;
80639;PMS5003;69992;60.170;24.692;2023-09-19T05:58:43;6;6;
80639;PMS5003;69992;60.170;24.692;2023-09-19T06:01:09;9;8;
80639;PMS5003;69992;60.170;24.692;2023-09-19T06:03:34;7;7;
80639;PMS5003;69992;60.170;24.692;2023-09-19T06:06:00;7;7;
80639;PMS5003;69992;60.170;24.692;2023-09-19T06:08:25;7;6;
80639;PMS5003;69992;60.170;24.692;2023-09-19T06:10:51;7;6;
80639;PMS5003;69992;60.170;24.692;2023-09-19T06:13:16;6;6;
80639;PMS5003;69992;60.170;24.692;2023-09-19T06:15:42;7;7;
80639;PMS5003;69992;60.170;24.692;2023-09-19T06:18:10;7;7;
80639;PMS5003;69992;60.170;24.692;2023-09-19T06:20:33;8;8;
80639;PMS5003;69992;60.170;24.692;2023-09-19T06:22:58;6;6;
80639;PMS5003;69992;60.170;24.692;2023-09-19T06:25:24;7;6;
80639;PMS5003;69992;60.170;24.692;2023-09-19T06:27:49;6;6;
80639;PMS5003;69992;60.170;24.692;2023-09-19T06:30:15;5;5;
80639;PMS5003;69992;60.170;24.692;2023-09-19T06:32:40;8;8;
80639;PMS5003;69992;60.170;24.692;2023-09-19T06:35:06;7;7;
80639;PMS5003;69992;60.170;24.692;2023-09-19T06:37:31;7;7;
80639;PMS5003;69992;60.170;24.692;2023-09-19T06:39:57;5;5;
80639;PMS5003;69992;60.170;24.692;2023-09-19T06:42:22;8;6;
80639;PMS5003;69992;60.170;24.692;2023-09-19T06:44:47;6;6;
80639;PMS5003;69992;60.170;24.692;2023-09-19T06:47:13;7;7;
80639;PMS5003;69992;60.170;24.692;2023-09-19T06:49:38;8;8;
80639;PMS5003;69992;60.170;24.692;2023-09-19T06:52:04;7;7;
80639;PMS5003;69992;60.170;24.692;2023-09-19T06:54:29;8;8;
80639;PMS5003;69992;60.170;24.692;2023-09-19T06:56:55;7;7;
80639;PMS5003;69992;60.170;24.692;2023-09-19T06:59:21;8;8;
80639;PMS5003;69992;60.170;24.692;2023-09-19T07:01:46;7;6;
80639;PMS5003;69992;60.170;24.692;2023-09-19T07:04:12;10;9;
80639;PMS5003;69992;60.170;24.692;2023-09-19T07:06:37;7;7;
80639;PMS5003;69992;60.170;24.692;2023-09-19T07:09:03;8;8;
80639;PMS5003;69992;60.170;24.692;2023-09-19T07:11:28;7;7;
80639;PMS5003;69992;60.170;24.692;2023-09-19T07:13:53;14;10;
80639;PMS5003;69992;60.170;24.692;2023-09-19T07:16:19;10;9;
80639;PMS5003;69992;60.170;24.692;2023-09-19T07:18:44;11;9;
80639;PMS5003;69992;60.170;24.692;2023-09-19T07:21:10;7;7;
80639;PMS5003;69992;60.170;24.692;2023-09-19T07:23:35;9;9;
80639;PMS5003;69992;60.170;24.692;2023-09-19T07:26:01;10;10;
80639;PMS5003;69992;60.170;24.692;2023-09-19T07:28:26;10;10;
80639;PMS5003;69992;60.170;24.692;2023-09-19T07:30:52;7;6;
80639;PMS5003;69992;60.170;24.692;2023-09-19T07:33:17;9;8;
80639;PMS5003;69992;60.170;24.692;2023-09-19T07:35:45;12;10;
80639;PMS5003;69992;60.170;24.692;2023-09-19T07:38:08;11;10;
80639;PMS5003;69992;60.170;24.692;2023-09-19T07:40:34;8;8;
80639;PMS5003;69992;60.170;24.692;2023-09-19T07:42:59;8;8;
80639;PMS5003;69992;60.170;24.692;2023-09-19T07:45:25;10;10;
80639;PMS5003;69992;60.170;24.692;2023-09-19T07:47:50;9;9;
80639;PMS5003;69992;60.170;24.692;2023-09-19T07:50:16;12;12;
80639;PMS5003;69992;60.170;24.692;2023-09-19T07:52:41;14;14;
80639;PMS5003;69992;60.170;24.692;2023-09-19T07:55:07;13;12;
80639;PMS5003;69992;60.170;24.692;2023-09-19T07:57:32;14;13;
80639;PMS5003;69992;60.170;24.692;2023-09-19T07:59:57;14;13;
80639;PMS5003;69992;60.170;24.692;2023-09-19T08:02:24;12;12;
80639;PMS5003;69992;60.170;24.692;2023-09-19T08:04:49;15;14;
80639;PMS5003;69992;60.170;24.692;2023-09-19T08:07:14;13;13;
80639;PMS5003;69992;60.170;24.692;2023-09-19T08:09:39;13;13;
80639;PMS5003;69992;60.170;24.692;2023-09-19T08:12:05;10;10;
80639;PMS5003;69992;60.170;24.692;2023-09-19T08:14:30;10;9;
80639;PMS5003;69992;60.170;24.692;2023-09-19T08:16:56;10;10;
80639;PMS5003;69992;60.170;24.692;2023-09-19T08:19:21;12;11;
80639;PMS5003;69992;60.170;24.692;2023-09-19T08:21:46;13;13;
80639;PMS5003;69992;60.170;24.692;2023-09-19T08:24:12;12;12;
80639;PMS5003;69992;60.170;24.692;2023-09-19T08:26:37;13;11;
80639;PMS5003;69992;60.170;24.692;2023-09-19T08:29:03;11;11;
80639;PMS5003;69992;60.170;24.692;2023-09-19T08:31:29;14;13;
80639;PMS5003;69992;60.170;24.692;2023-09-19T08:33:54;10;10;
80639;PMS5003;69992;60.170;24.692;2023-09-19T08:36:20;10;10;
80639;PMS5003;69992;60.170;24.692;2023-09-19T08:38:45;12;12;
80639;PMS5003;69992;60.170;24.692;2023-09-19T08:41:11;13;12;
80639;PMS5003;69992;60.170;24.692;2023-09-19T08:43:36;12;12;
80639;PMS5003;69992;60.170;24.692;2023-09-19T08:46:03;12;12;
80639;PMS5003;69992;60.170;24.692;2023-09-19T08:48:27;11;11;
80639;PMS5003;69992;60.170;24.692;2023-09-19T08:50:54;13;12;
80639;PMS5003;69992;60.170;24.692;2023-09-19T08:53:21;13;12;
80639;PMS5003;69992;60.170;24.692;2023-09-19T08:55:43;12;12;
80639;PMS5003;69992;60.170;24.692;2023-09-19T08:58:10;10;10;
80639;PMS5003;69992;60.170;24.692;2023-09-19T09:00:34;12;12;
80639;PMS5003;69992;60.170;24.692;2023-09-19T09:03:00;12;12;
80639;PMS5003;69992;60.170;24.692;2023-09-19T09:05:26;14;14;
80639;PMS5003;69992;60.170;24.692;2023-09-19T09:07:51;13;12;
80639;PMS5003;69992;60.170;24.692;2023-09-19T09:10:17;12;11;
80639;PMS5003;69992;60.170;24.692;2023-09-19T09:12:42;12;11;
80639;PMS5003;69992;60.170;24.692;2023-09-19T09:15:08;12;11;
80639;PMS5003;69992;60.170;24.692;2023-09-19T09:17:33;13;13;
80639;PMS5003;69992;60.170;24.692;2023-09-19T09:19:58;12;11;
80639;PMS5003;69992;60.170;24.692;2023-09-19T09:22:24;10;10;
80639;PMS5003;69992;60.170;24.692;2023-09-19T09:24:51;13;13;
80639;PMS5003;69992;60.170;24.692;2023-09-19T09:27:15;13;12;
80639;PMS5003;69992;60.170;24.692;2023-09-19T09:29:42;12;11;
80639;PMS5003;69992;60.170;24.692;2023-09-19T09:34:32;13;13;
80639;PMS5003;69992;60.170;24.692;2023-09-19T09:36:57;16;15;
80639;PMS5003;69992;60.170;24.692;2023-09-19T09:39:29;16;16;
80639;PMS5003;69992;60.170;24.692;2023-09-19T09:41:47;14;14;
80639;PMS5003;69992;60.170;24.692;2023-09-19T09:44:14;16;16;
80639;PMS5003;69992;60.170;24.692;2023-09-19T09:46:38;17;17;
80639;PMS5003;69992;60.170;24.692;2023-09-19T09:49:04;21;15;
80639;PMS5003;69992;60.170;24.692;2023-09-19T09:51:30;18;16;
80639;PMS5003;69992;60.170;24.692;2023-09-19T09:53:56;16;15;
80639;PMS5003;69992;60.170;24.692;2023-09-19T09:56:20;14;14;
80639;PMS5003;69992;60.170;24.692;2023-09-19T09:58:49;19;18;
80639;PMS5003;69992;60.170;24.692;2023-09-19T10:01:11;17;17;
80639;PMS5003;69992;60.170;24.692;2023-09-19T10:03:37;18;18;
80639;PMS5003;69992;60.170;24.692;2023-09-19T10:06:03;21;19;
80639;PMS5003;69992;60.170;24.692;2023-09-19T10:08:28;20;19;
80639;PMS5003;69992;60.170;24.692;2023-09-19T10:10:53;17;17;
80639;PMS5003;69992;60.170;24.692;2023-09-19T10:13:19;22;18;
80639;PMS5003;69992;60.170;24.692;2023-09-19T10:15:46;17;17;
80639;PMS5003;69992;60.170;24.692;2023-09-19T10:18:10;20;19;
80639;PMS5003;69992;60.170;24.692;2023-09-19T10:20:35;19;19;
80639;PMS5003;69992;60.170;24.692;2023-09-19T10:23:01;25;22;
80639;PMS5003;69992;60.170;24.692;2023-09-19T10:25:26;19;19;
80639;PMS5003;69992;60.170;24.692;2023-09-19T10:27:52;19;19;
80639;PMS5003;69992;60.170;24.692;2023-09-19T10:30:17;19;18;
80639;PMS5003;69992;60.170;24.692;2023-09-19T10:32:43;18;17;
80639;PMS5003;69992;60.170;24.692;2023-09-19T10:35:09;21;21;
80639;PMS5003;69992;60.170;24.692;2023-09-19T10:37:34;23;20;
80639;PMS5003;69992;60.170;24.692;2023-09-19T10:40:00;23;20;
80639;PMS5003;69992;60.170;24.692;2023-09-19T10:42:25;16;16;
80639;PMS5003;69992;60.170;24.692;2023-09-19T10:44:51;13;13;
80639;PMS5003;69992;60.170;24.692;2023-09-19T10:47:16;17;17;
80639;PMS5003;69992;60.170;24.692;2023-09-19T10:49:43;19;18;
80639;PMS5003;69992;60.170;24.692;2023-09-19T10:52:07;17;17;
80639;PMS5003;69992;60.170;24.692;2023-09-19T10:54:33;21;19;
80639;PMS5003;69992;60.170;24.692;2023-09-19T10:56:57;18;16;
80639;PMS5003;69992;60.170;24.692;2023-09-19T10:59:23;24;20;
80639;PMS5003;69992;60.170;24.692;2023-09-19T11:01:49;20;17;
80639;PMS5003;69992;60.170;24.692;2023-09-19T11:04:22;19;18;
80639;PMS5003;69992;60.170;24.692;2023-09-19T11:06:39;16;15;
80639;PMS5003;69992;60.170;24.692;2023-09-19T11:09:04;21;19;
80639;PMS5003;69992;60.170;24.692;2023-09-19T11:16:21;17;17;
80639;PMS5003;69992;60.170;24.692;2023-09-19T11:18:51;15;15;
80639;PMS5003;69992;60.170;24.692;2023-09-19T11:23:37;17;17;
80639;PMS5003;69992;60.170;24.692;2023-09-19T11:26:02;17;17;
80639;PMS5003;69992;60.170;24.692;2023-09-19T11:28:29;16;16;
80639;PMS5003;69992;60.170;24.692;2023-09-19T11:30:53;15;15;
80639;PMS5003;69992;60.170;24.692;2023-09-19T11:33:19;19;15;
80639;PMS5003;69992;60.170;24.692;2023-09-19T11:38:09;19;18;
80639;PMS5003;69992;60.170;24.692;2023-09-19T11:40:35;19;19;
80639;PMS5003;69992;60.170;24.692;2023-09-19T11:43:00;17;16;
80639;PMS5003;69992;60.170;24.692;2023-09-19T11:47:51;17;16;
80639;PMS5003;69992;60.170;24.692;2023-09-19T11:50:17;17;17;
80639;PMS5003;69992;60.170;24.692;2023-09-19T11:52:42;16;15;
80639;PMS5003;69992;60.170;24.692;2023-09-19T11:55:07;17;16;
80639;PMS5003;69992;60.170;24.692;2023-09-19T11:57:33;16;16;
80639;PMS5003;69992;60.170;24.692;2023-09-19T11:59:58;17;16;
80639;PMS5003;69992;60.170;24.692;2023-09-19T12:02:30;15;15;
80639;PMS5003;69992;60.170;24.692;2023-09-19T12:04:53;16;16;
80639;PMS5003;69992;60.170;24.692;2023-09-19T12:07:15;18;18;
80639;PMS5003;69992;60.170;24.692;2023-09-19T12:09:40;16;15;
80639;PMS5003;69992;60.170;24.692;2023-09-19T12:12:06;15;15;
80639;PMS5003;69992;60.170;24.692;2023-09-19T12:14:31;16;16;
80639;PMS5003;69992;60.170;24.692;2023-09-19T12:16:57;22;19;
80639;PMS5003;69992;60.170;24.692;2023-09-19T12:19:22;19;19;
80639;PMS5003;69992;60.170;24.692;2023-09-19T12:24:14;26;24;
80639;PMS5003;69992;60.170;24.692;2023-09-19T12:26:39;21;20;
80639;PMS5003;69992;60.170;24.692;2023-09-19T12:29:04;20;19;
80639;PMS5003;69992;60.170;24.692;2023-09-19T12:31:29;17;17;
80639;PMS5003;69992;60.170;24.692;2023-09-19T12:33:55;18;18;
80639;PMS5003;69992;60.170;24.692;2023-09-19T12:36:20;17;15;
80639;PMS5003;69992;60.170;24.692;2023-09-19T12:38:47;20;19;
80639;PMS5003;69992;60.170;24.692;2023-09-19T12:41:11;19;19;
80639;PMS5003;69992;60.170;24.692;2023-09-19T12:43:36;20;20;
80639;PMS5003;69992;60.170;24.692;2023-09-19T12:46:01;20;18;
80639;PMS5003;69992;60.170;24.692;2023-09-19T12:48:27;19;19;
80639;PMS5003;69992;60.170;24.692;2023-09-19T12:50:59;21;20;
80639;PMS5003;69992;60.170;24.692;2023-09-19T12:55:43;19;19;
80639;PMS5003;69992;60.170;24.692;2023-09-19T12:58:11;26;20;
80639;PMS5003;69992;60.170;24.692;2023-09-19T13:00:34;18;18;
80639;PMS5003;69992;60.170;24.692;2023-09-19T13:07:51;19;18;
80639;PMS5003;69992;60.170;24.692;2023-09-19T13:10:16;19;18;
80639;PMS5003;69992;60.170;24.692;2023-09-19T13:12:42;18;17;
80639;PMS5003;69992;60.170;24.692;2023-09-19T13:15:08;22;19;
80639;PMS5003;69992;60.170;24.692;2023-09-19T13:19:58;18;18;
80639;PMS5003;69992;60.170;24.692;2023-09-19T13:24:49;45;38;
80639;PMS5003;69992;60.170;24.692;2023-09-19T13:27:14;22;22;
80639;PMS5003;69992;60.170;24.692;2023-09-19T13:29:40;20;19;
80639;PMS5003;69992;60.170;24.692;2023-09-19T13:32:05;19;17;
80639;PMS5003;69992;60.170;24.692;2023-09-19T13:34:31;18;18;
80639;PMS5003;69992;60.170;24.692;2023-09-19T13:36:56;24;21;
80639;PMS5003;69992;60.170;24.692;2023-09-19T13:39:21;19;18;
80639;PMS5003;69992;60.170;24.692;2023-09-19T13:41:47;18;18;
80639;PMS5003;69992;60.170;24.692;2023-09-19T13:44:12;16;16;
80639;PMS5003;69992;60.170;24.692;2023-09-19T13:46:38;24;20;
80639;PMS5003;69992;60.170;24.692;2023-09-19T13:49:03;21;19;
80639;PMS5003;69992;60.170;24.692;2023-09-19T13:51:28;27;25;
80639;PMS5003;69992;60.170;24.692;2023-09-19T13:53:54;23;22;
80639;PMS5003;69992;60.170;24.692;2023-09-19T13:56:19;23;23;
80639;PMS5003;69992;60.170;24.692;2023-09-19T13:58:44;37;36;
80639;PMS5003;69992;60.170;24.692;2023-09-19T14:01:11;25;24;
80639;PMS5003;69992;60.170;24.692;2023-09-19T14:03:36;27;26;
80639;PMS5003;69992;60.170;24.692;2023-09-19T14:06:02;24;24;
80639;PMS5003;69992;60.170;24.692;2023-09-19T14:08:28;23;20;
80639;PMS5003;69992;60.170;24.692;2023-09-19T14:10:53;24;23;
80639;PMS5003;69992;60.170;24.692;2023-09-19T14:13:19;21;21;
80639;PMS5003;69992;60.170;24.692;2023-09-19T14:15:44;27;24;
80639;PMS5003;69992;60.170;24.692;2023-09-19T14:18:09;22;22;
80639;PMS5003;69992;60.170;24.692;2023-09-19T14:20:37;25;24;
80639;PMS5003;69992;60.170;24.692;2023-09-19T14:23:00;24;23;
80639;PMS5003;69992;60.170;24.692;2023-09-19T14:25:25;25;24;
80639;PMS5003;69992;60.170;24.692;2023-09-19T14:27:51;26;26;
80639;PMS5003;69992;60.170;24.692;2023-09-19T14:30:16;26;26;
80639;PMS5003;69992;60.170;24.692;2023-09-19T14:32:41;23;23;
80639;PMS5003;69992;60.170;24.692;2023-09-19T14:35:07;30;30;
80639;PMS5003;69992;60.170;24.692;2023-09-19T14:37:32;32;32;
80639;PMS5003;69992;60.170;24.692;2023-09-19T14:39:58;28;27;
80639;PMS5003;69992;60.170;24.692;2023-09-19T14:42:24;31;29;
80639;PMS5003;69992;60.170;24.692;2023-09-19T14:44:49;27;27;
80639;PMS5003;69992;60.170;24.692;2023-09-19T14:47:14;32;32;
80639;PMS5003;69992;60.170;24.692;2023-09-19T14:49:40;28;25;
80639;PMS5003;69992;60.170;24.692;2023-09-19T14:52:07;27;26;
80639;PMS5003;69992;60.170;24.692;2023-09-19T14:54:31;28;28;
80639;PMS5003;69992;60.170;24.692;2023-09-19T14:56:56;24;23;
80639;PMS5003;69992;60.170;24.692;2023-09-19T14:59:21;29;27;
80639;PMS5003;69992;60.170;24.692;2023-09-19T15:01:47;27;23;
80639;PMS5003;69992;60.170;24.692;2023-09-19T15:04:12;23;23;
80639;PMS5003;69992;60.170;24.692;2023-09-19T15:06:38;22;21;
80639;PMS5003;69992;60.170;24.692;2023-09-19T15:09:04;20;19;
80639;PMS5003;69992;60.170;24.692;2023-09-19T15:11:29;21;20;
80639;PMS5003;69992;60.170;24.692;2023-09-19T15:13:54;19;18;
80639;PMS5003;69992;60.170;24.692;2023-09-19T15:16:20;19;19;
80639;PMS5003;69992;60.170;24.692;2023-09-19T15:18:45;128;113;
80639;PMS5003;69992;60.170;24.692;2023-09-19T15:21:10;77;70;
80639;PMS5003;69992;60.170;24.692;2023-09-19T15:23:36;22;21;
80639;PMS5003;69992;60.170;24.692;2023-09-19T15:26:01;23;20;
80639;PMS5003;69992;60.170;24.692;2023-09-19T15:28:26;20;19;
80639;PMS5003;69992;60.170;24.692;2023-09-19T15:33:17;21;19;
80639;PMS5003;69992;60.170;24.692;2023-09-19T15:35:42;19;18;
80639;PMS5003;69992;60.170;24.692;2023-09-19T15:38:07;23;23;
80639;PMS5003;69992;60.170;24.692;2023-09-19T15:40:33;21;20;
80639;PMS5003;69992;60.170;24.692;2023-09-19T15:42:58;22;21;
80639;PMS5003;69992;60.170;24.692;2023-09-19T15:45:24;26;26;
80639;PMS5003;69992;60.170;24.692;2023-09-19T15:47:49;28;25;
80639;PMS5003;69992;60.170;24.692;2023-09-19T15:50:15;24;21;
80639;PMS5003;69992;60.170;24.692;2023-09-19T15:52:39;24;22;
80639;PMS5003;69992;60.170;24.692;2023-09-19T15:55:05;20;20;
80639;PMS5003;69992;60.170;24.692;2023-09-19T15:57:31;21;19;
80639;PMS5003;69992;60.170;24.692;2023-09-19T15:59:56;23;22;
80639;PMS5003;69992;60.170;24.692;2023-09-19T16:02:22;21;19;
80639;PMS5003;69992;60.170;24.692;2023-09-19T16:04:48;17;17;
80639;PMS5003;69992;60.170;24.692;2023-09-19T16:07:13;17;17;
80639;PMS5003;69992;60.170;24.692;2023-09-19T16:09:38;19;19;
80639;PMS5003;69992;60.170;24.692;2023-09-19T16:12:04;22;21;
80639;PMS5003;69992;60.170;24.692;2023-09-19T16:14:29;19;18;
80639;PMS5003;69992;60.170;24.692;2023-09-19T16:16:54;18;18;
80639;PMS5003;69992;60.170;24.692;2023-09-19T16:19:19;21;20;
80639;PMS5003;69992;60.170;24.692;2023-09-19T16:21:45;21;21;
80639;PMS5003;69992;60.170;24.692;2023-09-19T16:24:11;19;18;
80639;PMS5003;69992;60.170;24.692;2023-09-19T16:26:36;20;19;
80639;PMS5003;69992;60.170;24.692;2023-09-19T16:29:01;17;17;
80639;PMS5003;69992;60.170;24.692;2023-09-19T16:31:27;17;17;
80639;PMS5003;69992;60.170;24.692;2023-09-19T16:33:52;54;53;
80639;PMS5003;69992;60.170;24.692;2023-09-19T16:36:18;67;63;
80639;PMS5003;69992;60.170;24.692;2023-09-19T16:38:44;23;21;
80639;PMS5003;69992;60.170;24.692;2023-09-19T16:41:09;21;21;